Latest Weather Observations for Cape Willoughby

IDS60801

Issued at 3:32 pm CDT Saturday 28 March 2015 (issued every 30 minutes, with the page automatically refreshed every 10 minutes)

About weather observations | Map of weather stations | Latest weather observations for SA | Other Formats
Station Details ID: 022803 Name: CAPE WILLOUGHBY Lat: -35.84 Lon: 138.13 Height: 55.0 m
Data from the previous 72 hours. | See also: Recent months at Cape Willoughby
Date/Time
CDT
Temp
°C
App
Temp
°C
Dew
Point
Rel
Hum
%
Delta-T
°C
Wind Press
QNH
hPa
Press
MSL
hPa
Rain
since 9 am
mm
Dir
 
Spd
km/h
Gust
km/h
Spd
kts
Gust
kts
28/03:30pm 19.1 16.4 11.7 62 4.1 N 17 20 9 11 1022.3 1022.1 0.0
28/03:00pm 18.7 15.5 11.3 62 4.0 NNW 19 24 10 13 1022.7 1022.5 0.0
28/02:30pm 18.8 14.2 10.9 60 4.3 NNW 26 32 14 17 1023.0 1022.9 0.0
28/02:00pm 19.5 15.4 11.3 59 4.5 N 24 28 13 15 1023.3 1023.2 0.0
28/01:30pm 19.4 16.4 10.7 57 4.7 N 17 22 9 12 1023.7 1023.6 0.0
28/01:00pm 19.0 15.6 10.6 58 4.5 N 19 24 10 13 1024.2 1024.1 0.0
28/12:30pm 18.8 15.0 9.8 56 4.8 NNW 20 26 11 14 1024.5 1024.4 0.0
28/12:00pm 18.1 16.4 10.0 59 4.3 NNE 9 13 5 7 1024.6 1024.5 0.0
28/11:30am 17.8 15.2 9.2 57 4.5 NNE 13 17 7 9 1025.1 1025.0 0.0
28/11:00am 18.0 15.2 9.9 59 4.3 NNE 15 19 8 10 1025.4 1025.3 0.0
28/10:30am 17.3 13.7 10.0 62 3.8 NNE 19 22 10 12 1025.4 1025.3 0.0
28/10:00am 17.0 13.5 10.1 64 3.7 NNE 19 22 10 12 1025.6 1025.5 0.0
28/09:30am 16.2 12.8 10.7 70 2.9 NE 19 24 10 13 1025.6 1025.5 0.0
28/09:00am 15.6 12.2 10.4 71 2.7 NNE 19 22 10 12 1025.7 1025.6 0.2
28/08:30am 15.4 12.3 11.6 78 2.0 NE 19 24 10 13 1025.5 1025.4 0.2
28/08:00am 15.5 12.7 11.5 77 2.2 NE 17 24 9 13 1025.2 1025.1 0.2
28/07:30am 15.0 14.1 9.4 69 2.9 SSE 4 6 2 3 1024.9 1024.8 0.2
28/07:00am 14.4 13.2 8.1 66 3.2 SSW 4 6 2 3 1025.1 1025.0 0.2
28/06:30am 14.3 12.5 8.0 66 3.1 WSW 7 7 4 4 1025.3 1025.2 0.2
28/06:00am 14.1 12.5 8.1 67 3.0 SW 6 7 3 4 1025.2 1025.1 0.2
28/05:30am 14.2 12.6 7.9 66 3.1 SSW 6 7 3 4 1025.4 1025.3 0.2
28/05:00am 14.9 13.9 8.8 67 3.1 E 4 7 2 4 1025.4 1025.3 0.2
28/04:30am 14.7 14.2 8.0 64 3.3 CALM 0 4 0 2 1025.8 1025.7 0.2
28/04:00am 15.0 13.8 8.0 63 3.5 NE 4 7 2 4 1025.5 1025.4 0.2
28/03:30am 15.0 13.5 8.3 64 3.4 SE 6 9 3 5 1025.5 1025.4 0.2
28/03:00am 15.0 13.5 8.5 65 3.3 E 6 9 3 5 1025.7 1025.6 0.2
28/02:30am 15.1 13.4 8.3 64 3.4 E 7 15 4 8 1026.1 1026.0 0.2
28/02:00am 15.2 13.6 8.7 65 3.3 ESE 7 13 4 7 1026.5 1026.4 0.2
28/01:30am 15.1 13.5 8.8 66 3.2 SE 7 15 4 8 1026.8 1026.7 0.2
28/01:00am 15.3 13.6 9.7 69 2.9 SE 9 13 5 7 1026.8 1026.7 0.2
28/12:30am 15.2 13.6 8.9 66 3.2 SE 7 11 4 6 1026.8 1026.7 0.2
28/12:00am 15.3 12.9 8.8 65 3.3 S 11 15 6 8 1027.0 1026.9 0.2
 
Date/Time
CDT
Temp
°C
App
Temp
°C
Dew
Point
Rel
Hum
%
Delta-T
°C
Wind Press
QNH
hPa
Press
MSL
hPa
Rain
since 9 am
mm
Dir
 
Spd
km/h
Gust
km/h
Spd
kts
Gust
kts
27/11:30pm 15.3 12.7 9.2 67 3.1 SE 13 24 7 13 1027.1 1027.0 0.2
27/11:00pm 15.4 13.9 9.1 66 3.2 SSE 7 17 4 9 1027.2 1027.1 0.2
27/10:30pm 15.4 12.8 9.3 67 3.1 ESE 13 19 7 10 1027.5 1027.4 0.2
27/10:00pm 15.3 12.7 9.2 67 3.1 SE 13 19 7 10 1027.5 1027.4 0.2
27/09:30pm 15.3 11.9 9.2 67 3.1 SSE 17 24 9 13 1027.5 1027.4 0.2
27/09:00pm 15.3 12.1 10.1 71 2.7 SSE 17 22 9 12 1027.3 1027.2 0.2
27/08:30pm 15.2 12.9 10.6 74 2.4 SSE 13 20 7 11 1027.3 1027.2 0.2
27/08:00pm 14.9 12.7 10.9 77 2.1 SSE 13 17 7 9 1027.2 1027.1 0.2
27/07:30pm 14.8 12.6 10.8 77 2.1 S 13 17 7 9 1027.2 1027.1 0.2
27/07:00pm 14.7 13.0 11.1 79 1.9 S 11 17 6 9 1027.3 1027.2 0.2
27/06:30pm 14.7 13.0 11.1 79 1.9 S 11 13 6 7 1027.1 1027.0 0.2
27/06:00pm 14.4 10.0 11.7 84 1.4 S 26 32 14 17 1027.0 1026.9 0.2
27/05:30pm 15.4 12.3 10.2 71 2.7 SSE 17 22 9 12 1027.0 1026.9 0.2
27/05:00pm 15.6 12.6 10.6 72 2.7 S 17 20 9 11 1026.9 1026.8 0.2
27/04:30pm 15.7 13.2 10.9 73 2.5 S 15 20 8 11 1027.1 1027.0 0.2
27/04:00pm 15.5 12.4 11.5 77 2.2 SSE 19 22 10 12 1027.1 1027.0 0.2
27/03:30pm 15.7 12.7 10.7 72 2.6 S 17 20 9 11 1027.2 1027.1 0.2
27/03:00pm 16.0 13.3 10.3 69 3.0 S 15 19 8 10 1027.4 1027.3 0.2
27/02:30pm 15.6 12.4 9.9 69 3.0 S 17 20 9 11 1027.7 1027.6 0.2
27/02:00pm 16.0 12.9 10.3 69 3.0 S 17 22 9 12 1028.0 1027.9 0.2
27/01:30pm 15.2 14.6 11.6 79 1.9 S 6 9 3 5 1028.5 1028.4 0.2
27/01:00pm 15.9 13.0 12.3 79 2.0 S 19 26 10 14 1028.7 1028.6 0.2
27/12:30pm 15.9 14.2 11.3 74 2.5 S 11 20 6 11 1029.1 1029.0 0.2
27/12:00pm 15.7 14.6 10.5 71 2.7 SSW 7 17 4 9 1029.4 1029.3 0.2
27/11:30am 15.7 13.1 10.7 72 2.6 SSW 15 20 8 11 1029.7 1029.6 0.0
27/11:00am 15.2 13.2 10.0 71 2.7 S 11 17 6 9 1029.7 1029.6 0.0
27/10:30am 15.1 12.7 9.9 71 2.7 S 13 19 7 10 1029.7 1029.6 0.0
27/10:00am 14.4 11.8 10.6 78 2.0 S 15 22 8 12 1029.5 1029.4 0.0
27/09:30am 13.4 9.9 10.8 84 1.4 S 20 28 11 15 1029.3 1029.2 0.0
27/09:00am 14.3 10.2 10.1 76 2.2 SW 22 30 12 16 1029.2 1029.1 0.4
27/08:30am 14.9 11.4 10.9 77 2.1 SSW 20 32 11 17 1028.8 1028.7 0.4
27/08:00am 13.9 10.2 10.1 78 2.0 SSW 20 33 11 18 1028.7 1028.6 0.4
27/07:30am 14.6 9.8 9.0 69 2.8 S 24 32 13 17 1028.1 1028.0 0.4
27/07:00am 14.6 10.2 8.8 68 2.9 S 22 37 12 20 1028.0 1027.9 0.4
27/06:30am 14.7 9.2 9.1 69 2.8 S 28 35 15 19 1027.5 1027.4 0.4
27/06:00am 14.6 8.9 8.5 67 3.1 S 28 37 15 20 1027.4 1027.3 0.4
27/05:30am 14.9 10.6 7.7 62 3.6 S 20 28 11 15 1027.4 1027.3 0.4
27/05:00am 14.8 9.5 6.9 59 3.9 SSW 24 32 13 17 1027.2 1027.1 0.4
27/04:30am 14.9 11.0 8.6 66 3.2 SSW 19 28 10 15 1027.3 1027.2 0.4
27/04:00am 14.7 9.7 8.2 65 3.3 S 24 32 13 17 1027.2 1027.1 0.4
27/03:30am 14.5 8.4 8.2 66 3.1 SSW 30 44 16 24 1027.2 1027.1 0.4
27/03:00am 15.0 10.2 7.3 60 3.8 S 22 35 12 19 1027.4 1027.3 0.4
27/02:30am 14.7 10.4 8.0 64 3.3 SSW 20 33 11 18 1027.5 1027.4 0.4
27/02:00am 14.8 9.5 8.5 66 3.2 S 26 33 14 18 1027.5 1027.4 0.4
27/01:30am 14.5 8.8 8.2 66 3.1 SSW 28 37 15 20 1027.6 1027.5 0.4
27/01:00am 14.5 8.3 9.3 71 2.7 SSW 32 46 17 25 1027.5 1027.4 0.4
27/12:30am 14.7 9.1 7.3 61 3.6 SSW 26 33 14 18 1027.7 1027.6 0.4
27/12:00am 14.4 9.4 8.1 66 3.1 SSW 24 33 13 18 1027.9 1027.8 0.4
 
Date/Time
CDT
Temp
°C
App
Temp
°C
Dew
Point
Rel
Hum
%
Delta-T
°C
Wind Press
QNH
hPa
Press
MSL
hPa
Rain
since 9 am
mm
Dir
 
Spd
km/h
Gust
km/h
Spd
kts
Gust
kts
26/11:30pm 14.5 9.9 9.5 72 2.6 SSW 24 39 13 21 1027.8 1027.7 0.4
26/11:00pm 14.8 10.3 8.5 66 3.2 SSW 22 35 12 19 1027.8 1027.7 0.4
26/10:30pm 13.9 8.1 9.3 74 2.3 SSW 30 43 16 23 1028.1 1028.0 0.4
26/10:00pm 14.1 7.4 9.7 75 2.3 SW 35 46 19 25 1028.2 1028.1 0.4
26/09:59pm 14.2 7.1 9.6 74 2.4 SW 37 46 20 25 1028.1 1028.0 0.4
26/09:41pm 14.5 8.9 8.7 68 2.9 SSW 28 50 15 27 1027.9 1027.8 0.4
26/09:30pm 14.2 9.6 8.2 67 3.0 SSW 22 32 12 17 1028.1 1028.0 0.4
26/09:00pm 13.5 7.3 9.2 75 2.2 SW 32 43 17 23 1028.1 1028.0 0.4
26/08:43pm 13.2 7.5 9.8 80 1.7 SW 30 46 16 25 1027.9 1027.8 0.4
26/08:30pm 13.6 8.0 8.7 72 2.5 WSW 28 37 15 20 1027.9 1027.8 0.4
26/08:00pm 14.3 8.6 8.3 67 3.0 SSW 28 39 15 21 1027.5 1027.4 0.4
26/07:30pm 13.9 8.8 9.3 74 2.3 SW 26 41 14 22 1027.3 1027.2 0.4
26/07:00pm 14.2 8.8 7.9 66 3.1 SW 26 37 14 20 1027.3 1027.2 0.4
26/06:57pm 14.2 8.4 7.9 66 3.1 SW 28 39 15 21 1027.3 1027.2 0.4
26/06:30pm 14.2 7.0 9.0 71 2.6 SSW 37 46 20 25 1026.8 1026.7 0.2
26/06:00pm 13.4 7.6 9.5 77 2.0 SSW 30 43 16 23 1026.6 1026.5 0.2
26/05:30pm 13.9 6.1 8.1 68 2.9 SSW 39 48 21 26 1026.4 1026.3 0.2
26/05:00pm 14.7 7.3 6.8 59 3.9 SSW 35 46 19 25 1026.1 1026.0 0.2
26/04:30pm 15.2 7.6 6.0 54 4.4 SW 35 48 19 26 1026.0 1025.9 0.2
26/04:00pm 15.0 7.6 6.6 57 4.1 SW 35 44 19 24 1026.0 1025.9 0.2
26/03:30pm 15.2 7.9 7.3 59 3.9 SW 35 46 19 25 1026.0 1025.9 0.2
26/03:00pm 15.4 7.3 6.9 57 4.2 SW 39 48 21 26 1025.9 1025.8 0.2
26/02:30pm 15.7 6.9 5.6 51 4.8 SW 41 50 22 27 1026.1 1026.0 0.2
26/02:00pm 15.9 7.8 7.1 56 4.4 SW 39 46 21 25 1026.2 1026.1 0.2
26/01:30pm 15.5 8.0 7.8 60 3.8 SW 37 50 20 27 1026.3 1026.2 0.2
26/01:00pm 14.8 6.2 8.3 65 3.3 SW 43 56 23 30 1026.2 1026.1 0.2
26/12:30pm 15.4 7.8 7.4 59 3.9 SW 37 48 20 26 1026.1 1026.0 0.2
26/12:00pm 13.6 6.3 8.9 73 2.4 SW 37 61 20 33 1026.0 1025.9 0.2
26/11:59am 14.6 7.9 9.6 72 2.6 SW 35 61 19 33 1025.9 1025.8 0.2
26/11:30am 13.6 6.1 8.0 69 2.8 SW 37 46 20 25 1026.1 1026.0 0.0
26/11:10am 14.0 7.1 9.0 72 2.5 SW 35 56 19 30 1025.9 1025.8 0.0
26/11:00am 14.2 6.2 7.3 63 3.4 SW 39 54 21 29 1025.9 1025.8 0.0
26/10:30am 14.5 6.3 6.6 59 3.8 SW 39 48 21 26 1025.8 1025.7 0.0
26/10:00am 12.9 3.7 8.0 72 2.4 SW 46 57 25 31 1025.2 1025.1 0.0
26/09:30am 14.4 5.6 5.7 56 4.1 SW 41 52 22 28 1024.9 1024.8 0.0
26/09:00am 13.6 5.3 7.6 67 2.9 SSW 41 56 22 30 1024.4 1024.3 4.0
26/08:45am 13.9 5.2 7.9 67 3.0 SW 43 65 23 35 1024.0 1023.9 4.0
26/08:30am 13.9 5.3 6.3 60 3.6 SW 41 54 22 29 1023.8 1023.7 4.0
26/08:00am 13.4 5.0 7.2 66 3.0 SW 41 57 22 31 1023.6 1023.5 4.0
26/07:53am 13.4 5.8 7.4 67 2.9 SW 37 56 20 30 1023.2 1023.1 4.0
26/07:30am 13.0 5.5 6.1 63 3.3 SW 35 50 19 27 1023.3 1023.2 4.0
26/07:11am 12.2 3.9 6.0 66 2.9 WSW 39 57 21 31 1023.2 1023.1 4.0
26/07:00am 13.3 4.4 6.9 65 3.1 SW 43 57 23 31 1022.6 1022.4 4.0
26/06:30am 12.6 5.0 5.8 63 3.2 SW 35 57 19 31 1022.2 1022.0 4.0
26/06:28am 12.5 5.4 6.5 67 2.9 SW 33 54 18 29 1022.2 1022.0 4.0
26/06:00am 11.7 3.1 8.0 78 1.8 SW 43 59 23 32 1022.3 1022.1 4.0
26/05:30am 12.7 4.2 7.0 68 2.7 SW 41 63 22 34 1021.6 1021.4 3.6
26/05:00am 11.9 3.2 7.6 75 2.1 SW 43 61 23 33 1021.6 1021.4 3.6
26/04:30am 12.2 4.3 7.9 75 2.1 SW 39 57 21 31 1021.6 1021.4 3.4
26/04:00am 12.7 4.4 7.8 72 2.4 SW 41 63 22 34 1021.4 1021.2 3.4
26/03:47am 12.8 4.3 7.0 68 2.8 SW 41 52 22 28 1021.4 1021.2 3.4
26/03:30am 13.0 5.5 4.4 56 3.9 WSW 33 43 18 23 1021.5 1021.3 3.2
26/03:00am 13.1 3.9 5.3 59 3.6 SW 43 54 23 29 1021.3 1021.1 3.2
26/02:31am 12.5 5.8 7.4 71 2.5 SW 32 46 17 25 1021.4 1021.2 3.2
26/02:30am 12.6 6.3 7.5 71 2.5 SW 30 46 16 25 1021.4 1021.2 3.2
26/02:00am 11.9 6.0 5.8 66 2.9 WSW 26 35 14 19 1021.6 1021.4 3.2
26/01:49am 12.1 3.7 5.5 64 3.1 WSW 39 48 21 26 1021.5 1021.3 3.2
26/01:32am 12.3 3.5 7.4 72 2.4 SW 43 63 23 34 1021.1 1020.9 3.2
26/01:30am 13.1 4.9 8.0 71 2.5 SW 41 56 22 30 1021.3 1021.1 3.2
26/01:00am 12.9 4.0 5.1 59 3.6 SW 41 57 22 31 1021.2 1021.0 3.2
26/12:43am 13.2 5.8 6.8 65 3.1 SW 35 56 19 30 1020.9 1020.7 3.2
26/12:30am 12.9 4.4 5.1 59 3.6 WSW 39 48 21 26 1021.2 1021.0 3.2
26/12:00am 13.2 3.6 6.3 63 3.3 SW 46 57 25 31 1020.9 1020.7 3.2
 
Date/Time
CDT
Temp
°C
App
Temp
°C
Dew
Point
Rel
Hum
%
Delta-T
°C
Wind Press
QNH
hPa
Press
MSL
hPa
Rain
since 9 am
mm
Dir
 
Spd
km/h
Gust
km/h
Spd
kts
Gust
kts
25/11:30pm 13.2 4.3 7.0 66 3.0 SW 43 54 23 29 1020.7 1020.5 3.2
25/11:03pm 12.3 3.9 7.4 72 2.4 SW 41 61 22 33 1020.9 1020.7 3.2
25/11:00pm 12.3 3.2 7.0 70 2.6 SW 44 61 24 33 1020.6 1020.4 3.2
25/10:52pm 13.4 6.0 5.1 57 3.9 WSW 33 59 18 32 1020.8 1020.6 3.2
25/10:30pm 13.4 5.2 6.7 64 3.2 SW 39 52 21 28 1020.6 1020.4 3.2
25/10:00pm 13.3 4.2 8.6 73 2.4 SW 46 61 25 33 1020.1 1019.9 3.2
25/09:54pm 13.2 5.2 7.6 69 2.7 WSW 39 57 21 31 1020.1 1019.9 3.2
25/09:30pm 13.3 4.3 4.7 56 4.0 WSW 41 54 22 29 1020.2 1020.0 3.2
25/09:00pm 13.6 4.6 4.5 54 4.2 WSW 41 54 22 29 1019.5 1019.4 3.2
25/08:30pm 13.9 4.8 6.0 59 3.8 SW 43 56 23 30 1018.9 1018.8 3.2
25/08:02pm 13.9 5.5 7.2 64 3.3 SW 41 59 22 32 1018.8 1018.7 3.2
25/08:00pm 13.8 4.8 6.2 60 3.6 SW 43 59 23 32 1018.6 1018.5 3.2
25/07:37pm 13.8 5.1 6.2 60 3.6 WSW 41 61 22 33 1018.4 1018.3 3.2
25/07:30pm 13.9 3.8 5.5 57 4.0 SW 48 61 26 33 1018.0 1017.9 3.2
25/07:00pm 14.1 5.4 7.6 65 3.2 SW 43 54 23 29 1017.7 1017.6 3.2
25/06:30pm 13.9 4.0 6.7 62 3.5 WSW 48 61 26 33 1017.0 1016.9 3.2
25/06:22pm 13.8 7.2 8.6 71 2.6 WSW 33 57 18 31 1016.9 1016.8 3.2
25/06:00pm 13.0 6.3 9.8 81 1.6 WSW 35 46 19 25 1017.0 1016.9 3.2
25/05:30pm 12.1 3.8 10.2 88 1.0 WSW 44 61 24 33 1016.6 1016.5 3.0
25/05:00pm 12.6 4.3 11.3 92 0.7 WSW 46 61 25 33 1016.2 1016.1 2.6
25/04:30pm 13.6 5.7 12.8 95 0.4 SW 46 61 25 33 1016.0 1015.9 1.8
25/04:12pm 13.7 5.0 12.4 92 0.7 WSW 50 69 27 37 1015.7 1015.6 1.0
25/04:01pm 14.8 9.7 13.2 90 0.9 WNW 32 59 17 32 1015.6 1015.5 0.6
25/04:00pm 14.9 9.9 13.4 91 0.8 WNW 32 43 17 23 1015.7 1015.6 0.6
25/03:33pm 18.6 8.7 9.9 57 4.6 NW 52 72 28 39 1014.8 1014.7 0.0

Other Formats:

Comma delimited format used in spreadsheet applications
http://www.bom.gov.au/fwo/IDS60801/IDS60801.94822.axf

JavaScript Object Notation format (JSON) in row-major order
http://www.bom.gov.au/fwo/IDS60801/IDS60801.94822.json